sensor_id;sensor_type;location;lat;lon;timestamp;pressure;altitude;pressure_sealevel;temperature;humidity
7768;BME280;3928;42.626;23.382;2023-01-30T00:00:53;94385.69;;;3.37;71.14
7768;BME280;3928;42.626;23.382;2023-01-30T00:03:23;94373.22;;;3.56;71.22
7768;BME280;3928;42.626;23.382;2023-01-30T00:05:50;94375.69;;;3.48;70.96
7768;BME280;3928;42.626;23.382;2023-01-30T00:08:17;94369.81;;;3.53;71.01
7768;BME280;3928;42.626;23.382;2023-01-30T00:10:44;94305.16;;;3.19;70.68
7768;BME280;3928;42.626;23.382;2023-01-30T00:13:11;94372.25;;;3.44;70.79
7768;BME280;3928;42.626;23.382;2023-01-30T00:15:39;94359.53;;;3.43;70.46
7768;BME280;3928;42.626;23.382;2023-01-30T00:18:06;94365.91;;;3.09;72.47
7768;BME280;3928;42.626;23.382;2023-01-30T00:20:34;94359.66;;;2.84;73.26
7768;BME280;3928;42.626;23.382;2023-01-30T00:23:01;94354.78;;;2.98;72.88
7768;BME280;3928;42.626;23.382;2023-01-30T00:25:28;94371.72;;;3.02;73.16
7768;BME280;3928;42.626;23.382;2023-01-30T00:27:58;94367.66;;;3.13;72.89
7768;BME280;3928;42.626;23.382;2023-01-30T00:30:24;94347.25;;;3.04;72.49
7768;BME280;3928;42.626;23.382;2023-01-30T00:32:53;94365.25;;;3.25;72.69
7768;BME280;3928;42.626;23.382;2023-01-30T00:35:20;94361.09;;;3.30;72.33
7768;BME280;3928;42.626;23.382;2023-01-30T00:37:48;94371.09;;;3.19;73.08
7768;BME280;3928;42.626;23.382;2023-01-30T00:40:15;94360.03;;;3.13;72.78
7768;BME280;3928;42.626;23.382;2023-01-30T00:42:42;94363.47;;;3.18;73.20
7768;BME280;3928;42.626;23.382;2023-01-30T00:45:26;94363.63;;;3.30;73.04
7768;BME280;3928;42.626;23.382;2023-01-30T00:48:11;94340.75;;;3.27;72.79
7768;BME280;3928;42.626;23.382;2023-01-30T00:50:37;94335.22;;;2.86;73.64
7768;BME280;3928;42.626;23.382;2023-01-30T00:53:12;94341.31;;;3.03;74.19
7768;BME280;3928;42.626;23.382;2023-01-30T00:55:40;94340.50;;;3.06;74.15
7768;BME280;3928;42.626;23.382;2023-01-30T00:58:07;94326.28;;;3.18;73.91
7768;BME280;3928;42.626;23.382;2023-01-30T01:00:35;94318.63;;;3.12;74.01
7768;BME280;3928;42.626;23.382;2023-01-30T01:03:02;94344.16;;;3.29;73.73
7768;BME280;3928;42.626;23.382;2023-01-30T01:05:29;94341.72;;;3.35;72.92
7768;BME280;3928;42.626;23.382;2023-01-30T01:07:56;94340.84;;;3.33;72.10
7768;BME280;3928;42.626;23.382;2023-01-30T01:10:24;94349.34;;;3.38;72.82
7768;BME280;3928;42.626;23.382;2023-01-30T01:12:51;94335.84;;;3.42;72.25
7768;BME280;3928;42.626;23.382;2023-01-30T01:15:18;94349.22;;;3.28;72.77
7768;BME280;3928;42.626;23.382;2023-01-30T01:17:46;94341.63;;;3.28;72.17
7768;BME280;3928;42.626;23.382;2023-01-30T01:20:13;94328.50;;;2.92;73.24
7768;BME280;3928;42.626;23.382;2023-01-30T01:22:40;94341.44;;;3.11;73.67
7768;BME280;3928;42.626;23.382;2023-01-30T01:25:08;94333.88;;;3.17;73.39
7768;BME280;3928;42.626;23.382;2023-01-30T01:27:37;94328.03;;;3.22;73.33
7768;BME280;3928;42.626;23.382;2023-01-30T01:30:05;94302.81;;;2.62;74.41
7768;BME280;3928;42.626;23.382;2023-01-30T01:32:32;94337.97;;;3.04;74.07
7768;BME280;3928;42.626;23.382;2023-01-30T01:34:58;94331.81;;;2.85;74.21
7768;BME280;3928;42.626;23.382;2023-01-30T01:37:25;94316.75;;;2.98;73.62
7768;BME280;3928;42.626;23.382;2023-01-30T01:39:52;94328.59;;;2.97;73.25
7768;BME280;3928;42.626;23.382;2023-01-30T01:42:41;94326.09;;;3.00;73.18
7768;BME280;3928;42.626;23.382;2023-01-30T01:45:17;94303.19;;;2.96;73.18
7768;BME280;3928;42.626;23.382;2023-01-30T01:47:48;94320.34;;;3.15;73.22
7768;BME280;3928;42.626;23.382;2023-01-30T01:50:23;94326.09;;;3.02;73.41
7768;BME280;3928;42.626;23.382;2023-01-30T01:52:52;94333.56;;;2.89;73.79
7768;BME280;3928;42.626;23.382;2023-01-30T01:55:22;94319.91;;;2.81;72.96
7768;BME280;3928;42.626;23.382;2023-01-30T01:57:53;94325.34;;;3.09;72.99
7768;BME280;3928;42.626;23.382;2023-01-30T02:00:22;94324.56;;;3.16;72.47
7768;BME280;3928;42.626;23.382;2023-01-30T02:02:53;94322.03;;;3.16;72.24
7768;BME280;3928;42.626;23.382;2023-01-30T02:05:22;94321.22;;;3.18;72.38
7768;BME280;3928;42.626;23.382;2023-01-30T02:07:56;94333.94;;;3.20;71.63
7768;BME280;3928;42.626;23.382;2023-01-30T02:10:31;94333.97;;;3.25;71.67
7768;BME280;3928;42.626;23.382;2023-01-30T02:13:03;94307.63;;;3.12;71.57
7768;BME280;3928;42.626;23.382;2023-01-30T02:15:30;94306.84;;;3.17;71.85
7768;BME280;3928;42.626;23.382;2023-01-30T02:17:57;94334.94;;;3.36;71.01
7768;BME280;3928;42.626;23.382;2023-01-30T02:20:30;94334.13;;;3.38;70.53
7768;BME280;3928;42.626;23.382;2023-01-30T02:29:37;94340.63;;;3.15;71.69
7768;BME280;3928;42.626;23.382;2023-01-30T02:32:16;94338.94;;;3.14;71.71
7768;BME280;3928;42.626;23.382;2023-01-30T02:34:52;94313.56;;;3.14;72.26
7768;BME280;3928;42.626;23.382;2023-01-30T02:37:33;94325.53;;;3.27;71.88
7768;BME280;3928;42.626;23.382;2023-01-30T02:40:13;94314.50;;;3.22;71.15
7768;BME280;3928;42.626;23.382;2023-01-30T02:42:44;94317.94;;;3.26;70.78
7768;BME280;3928;42.626;23.382;2023-01-30T02:45:21;94317.09;;;3.28;70.51
7768;BME280;3928;42.626;23.382;2023-01-30T02:47:56;94315.28;;;3.18;70.77
7768;BME280;3928;42.626;23.382;2023-01-30T02:50:29;94311.81;;;3.08;71.39
7768;BME280;3928;42.626;23.382;2023-01-30T02:52:56;94308.72;;;2.62;72.34
7768;BME280;3928;42.626;23.382;2023-01-30T02:55:26;94284.06;;;2.51;72.37
7768;BME280;3928;42.626;23.382;2023-01-30T02:57:53;94309.59;;;2.66;72.55
7768;BME280;3928;42.626;23.382;2023-01-30T03:00:26;94313.16;;;2.80;72.81
7768;BME280;3928;42.626;23.382;2023-01-30T03:03:20;94321.47;;;2.70;73.17
7768;BME280;3928;42.626;23.382;2023-01-30T03:06:03;94317.25;;;2.72;72.91
7768;BME280;3928;42.626;23.382;2023-01-30T03:08:41;94326.44;;;2.62;72.96
7768;BME280;3928;42.626;23.382;2023-01-30T03:11:10;94310.84;;;2.37;73.48
7768;BME280;3928;42.626;23.382;2023-01-30T03:13:43;94311.66;;;2.32;73.60
7768;BME280;3928;42.626;23.382;2023-01-30T03:16:17;94316.91;;;2.46;73.84
7768;BME280;3928;42.626;23.382;2023-01-30T03:18:48;94311.28;;;2.66;73.40
7768;BME280;3928;42.626;23.382;2023-01-30T03:21:15;94309.44;;;2.55;73.38
7768;BME280;3928;42.626;23.382;2023-01-30T03:23:43;94298.50;;;2.58;73.23
7768;BME280;3928;42.626;23.382;2023-01-30T03:26:15;94289.16;;;2.54;73.28
7768;BME280;3928;42.626;23.382;2023-01-30T03:28:44;94296.59;;;2.42;73.78
7768;BME280;3928;42.626;23.382;2023-01-30T03:31:11;94281.41;;;2.42;73.71
7768;BME280;3928;42.626;23.382;2023-01-30T03:33:38;94289.13;;;2.49;73.44
7768;BME280;3928;42.626;23.382;2023-01-30T03:36:07;94285.63;;;2.43;73.44
7768;BME280;3928;42.626;23.382;2023-01-30T03:38:35;94278.88;;;2.42;73.20
7768;BME280;3928;42.626;23.382;2023-01-30T03:41:03;94270.41;;;2.40;73.76
7768;BME280;3928;42.626;23.382;2023-01-30T03:43:30;94262.13;;;2.53;73.42
7768;BME280;3928;42.626;23.382;2023-01-30T03:45:57;94273.03;;;2.47;72.83
7768;BME280;3928;42.626;23.382;2023-01-30T03:48:24;94287.47;;;2.53;73.00
7768;BME280;3928;42.626;23.382;2023-01-30T03:50:50;94294.97;;;2.45;72.94
7768;BME280;3928;42.626;23.382;2023-01-30T03:53:18;94278.13;;;2.49;73.07
7768;BME280;3928;42.626;23.382;2023-01-30T03:55:45;94282.44;;;2.56;72.73
7768;BME280;3928;42.626;23.382;2023-01-30T03:58:12;94260.22;;;2.37;73.08
7768;BME280;3928;42.626;23.382;2023-01-30T04:00:39;94283.97;;;2.45;73.86
7768;BME280;3928;42.626;23.382;2023-01-30T04:03:06;94277.41;;;2.59;72.94
7768;BME280;3928;42.626;23.382;2023-01-30T04:05:33;94255.19;;;2.38;73.26
7768;BME280;3928;42.626;23.382;2023-01-30T04:07:59;94256.13;;;2.45;72.93
7768;BME280;3928;42.626;23.382;2023-01-30T04:10:28;94209.47;;;2.27;72.74
7768;BME280;3928;42.626;23.382;2023-01-30T04:12:54;94272.47;;;2.68;72.87
7768;BME280;3928;42.626;23.382;2023-01-30T04:15:21;94273.44;;;2.79;72.04
7768;BME280;3928;42.626;23.382;2023-01-30T04:17:48;94270.94;;;2.82;72.06
7768;BME280;3928;42.626;23.382;2023-01-30T04:20:15;94264.28;;;2.90;71.81
7768;BME280;3928;42.626;23.382;2023-01-30T04:22:42;94267.69;;;2.94;71.79
7768;BME280;3928;42.626;23.382;2023-01-30T04:25:09;94263.63;;;3.07;72.14
7768;BME280;3928;42.626;23.382;2023-01-30T04:27:37;94261.94;;;3.07;71.06
7768;BME280;3928;42.626;23.382;2023-01-30T04:30:05;94268.66;;;3.04;71.36
7768;BME280;3928;42.626;23.382;2023-01-30T04:32:32;94269.47;;;3.00;71.20
7768;BME280;3928;42.626;23.382;2023-01-30T04:34:58;94271.78;;;2.81;72.13
7768;BME280;3928;42.626;23.382;2023-01-30T04:37:25;94264.22;;;2.84;71.99
7768;BME280;3928;42.626;23.382;2023-01-30T04:39:52;94248.06;;;2.73;72.49
7768;BME280;3928;42.626;23.382;2023-01-30T04:42:19;94269.19;;;2.77;72.16
7768;BME280;3928;42.626;23.382;2023-01-30T04:44:47;94259.19;;;2.86;72.54
7768;BME280;3928;42.626;23.382;2023-01-30T04:47:14;94261.75;;;2.90;72.60
7768;BME280;3928;42.626;23.382;2023-01-30T04:49:41;94252.44;;;2.89;72.71
7768;BME280;3928;42.626;23.382;2023-01-30T04:52:08;94255.03;;;2.94;73.08
7768;BME280;3928;42.626;23.382;2023-01-30T04:54:35;94257.69;;;3.05;72.91
7768;BME280;3928;42.626;23.382;2023-01-30T04:57:02;94245.66;;;2.85;72.74
7768;BME280;3928;42.626;23.382;2023-01-30T04:59:29;94249.06;;;2.87;72.54
7768;BME280;3928;42.626;23.382;2023-01-30T05:01:57;94237.09;;;2.74;72.94
7768;BME280;3928;42.626;23.382;2023-01-30T05:04:23;94242.09;;;2.71;73.23
7768;BME280;3928;42.626;23.382;2023-01-30T05:06:50;94237.88;;;2.72;74.14
7768;BME280;3928;42.626;23.382;2023-01-30T05:09:17;94235.47;;;2.82;73.51
7768;BME280;3928;42.626;23.382;2023-01-30T05:11:44;94238.66;;;2.66;73.94
7768;BME280;3928;42.626;23.382;2023-01-30T05:14:11;94216.66;;;2.62;73.85
7768;BME280;3928;42.626;23.382;2023-01-30T05:16:38;94241.47;;;2.89;73.60
7768;BME280;3928;42.626;23.382;2023-01-30T05:19:06;94243.97;;;2.84;73.51
7768;BME280;3928;42.626;23.382;2023-01-30T05:21:34;94253.19;;;2.79;73.64
7768;BME280;3928;42.626;23.382;2023-01-30T05:24:01;94264.06;;;2.72;73.63
7768;BME280;3928;42.626;23.382;2023-01-30T05:26:28;94259.06;;;2.78;73.97
7768;BME280;3928;42.626;23.382;2023-01-30T05:28:56;94264.94;;;2.74;74.01
7768;BME280;3928;42.626;23.382;2023-01-30T05:31:23;94264.75;;;2.59;75.14
7768;BME280;3928;42.626;23.382;2023-01-30T05:33:50;94260.63;;;2.67;74.93
7768;BME280;3928;42.626;23.382;2023-01-30T05:36:21;94269.13;;;2.72;75.19
7768;BME280;3928;42.626;23.382;2023-01-30T05:38:48;94251.44;;;2.74;75.37
7768;BME280;3928;42.626;23.382;2023-01-30T05:41:16;94255.38;;;2.52;76.13
7768;BME280;3928;42.626;23.382;2023-01-30T05:43:43;94250.59;;;2.73;75.73
7768;BME280;3928;42.626;23.382;2023-01-30T05:46:12;94242.09;;;2.71;75.34
7768;BME280;3928;42.626;23.382;2023-01-30T05:48:39;94255.69;;;2.76;75.45
7768;BME280;3928;42.626;23.382;2023-01-30T05:51:13;94226.84;;;2.68;74.94
7768;BME280;3928;42.626;23.382;2023-01-30T05:53:42;94254.25;;;3.00;75.11
7768;BME280;3928;42.626;23.382;2023-01-30T05:56:09;94254.31;;;3.06;74.60
7768;BME280;3928;42.626;23.382;2023-01-30T05:58:36;94257.66;;;3.03;74.32
7768;BME280;3928;42.626;23.382;2023-01-30T06:01:04;94248.47;;;3.11;74.71
7768;BME280;3928;42.626;23.382;2023-01-30T06:03:31;94265.41;;;3.15;74.10
7768;BME280;3928;42.626;23.382;2023-01-30T06:06:00;94262.03;;;3.15;74.39
7768;BME280;3928;42.626;23.382;2023-01-30T06:08:27;94262.03;;;3.16;73.94
7768;BME280;3928;42.626;23.382;2023-01-30T06:10:58;94268.91;;;3.25;73.32
7768;BME280;3928;42.626;23.382;2023-01-30T06:13:25;94264.59;;;3.18;73.75
7768;BME280;3928;42.626;23.382;2023-01-30T06:15:52;94264.66;;;3.24;80.89
7768;BME280;3928;42.626;23.382;2023-01-30T06:18:19;94238.59;;;3.37;82.88
7768;BME280;3928;42.626;23.382;2023-01-30T06:20:46;94244.91;;;3.85;78.22
7768;BME280;3928;42.626;23.382;2023-01-30T06:23:13;94254.41;;;4.07;73.46
7768;BME280;3928;42.626;23.382;2023-01-30T06:25:42;94241.69;;;4.03;71.08
7768;BME280;3928;42.626;23.382;2023-01-30T06:28:10;94247.53;;;3.96;71.34
7768;BME280;3928;42.626;23.382;2023-01-30T06:30:37;94240.78;;;3.99;73.17
7768;BME280;3928;42.626;23.382;2023-01-30T06:33:04;94208.38;;;3.63;70.60
7768;BME280;3928;42.626;23.382;2023-01-30T06:35:31;94253.19;;;3.66;71.67
7768;BME280;3928;42.626;23.382;2023-01-30T06:37:58;94238.81;;;3.62;71.34
7768;BME280;3928;42.626;23.382;2023-01-30T06:40:25;94253.25;;;3.67;71.25
7768;BME280;3928;42.626;23.382;2023-01-30T06:42:52;94259.16;;;3.68;71.80
7768;BME280;3928;42.626;23.382;2023-01-30T06:45:20;94241.34;;;3.62;72.13
7768;BME280;3928;42.626;23.382;2023-01-30T06:47:48;94253.16;;;3.57;71.54
7768;BME280;3928;42.626;23.382;2023-01-30T06:50:16;94250.47;;;3.43;72.05
7768;BME280;3928;42.626;23.382;2023-01-30T06:52:44;94246.28;;;3.46;71.79
7768;BME280;3928;42.626;23.382;2023-01-30T06:55:13;94264.75;;;3.33;72.17
7768;BME280;3928;42.626;23.382;2023-01-30T06:57:41;94266.38;;;3.25;72.25
7768;BME280;3928;42.626;23.382;2023-01-30T07:00:10;94264.69;;;3.27;73.57
7768;BME280;3928;42.626;23.382;2023-01-30T07:02:38;94248.50;;;3.16;72.73
7768;BME280;3928;42.626;23.382;2023-01-30T07:05:07;94262.13;;;3.24;72.29
7768;BME280;3928;42.626;23.382;2023-01-30T07:07:34;94263.81;;;3.25;73.08
7768;BME280;3928;42.626;23.382;2023-01-30T07:10:02;94262.13;;;3.24;72.97
7768;BME280;3928;42.626;23.382;2023-01-30T07:12:29;94277.50;;;3.42;73.24
7768;BME280;3928;42.626;23.382;2023-01-30T07:14:56;94268.91;;;3.27;72.61
7768;BME280;3928;42.626;23.382;2023-01-30T07:17:23;94277.50;;;3.39;72.95
7768;BME280;3928;42.626;23.382;2023-01-30T07:19:51;94281.81;;;3.49;72.79
7768;BME280;3928;42.626;23.382;2023-01-30T07:22:18;94279.38;;;3.57;72.76
7768;BME280;3928;42.626;23.382;2023-01-30T07:24:45;94285.28;;;3.58;71.84
7768;BME280;3928;42.626;23.382;2023-01-30T07:27:12;94283.53;;;3.52;71.53
7768;BME280;3928;42.626;23.382;2023-01-30T07:29:39;94281.84;;;3.52;71.60
7768;BME280;3928;42.626;23.382;2023-01-30T07:32:07;94241.03;;;3.28;70.97
7768;BME280;3928;42.626;23.382;2023-01-30T07:34:38;94296.19;;;3.49;71.66
7768;BME280;3928;42.626;23.382;2023-01-30T07:37:07;94286.78;;;3.37;71.72
7768;BME280;3928;42.626;23.382;2023-01-30T07:39:34;94306.31;;;3.46;72.13
7768;BME280;3928;42.626;23.382;2023-01-30T07:42:01;94293.63;;;3.46;72.09
7768;BME280;3928;42.626;23.382;2023-01-30T07:44:30;94284.03;;;3.17;72.50
7768;BME280;3928;42.626;23.382;2023-01-30T07:46:58;94302.00;;;3.39;72.90
7768;BME280;3928;42.626;23.382;2023-01-30T07:49:25;94302.03;;;3.40;71.53
7768;BME280;3928;42.626;23.382;2023-01-30T07:51:52;94205.91;;;2.83;71.09
7768;BME280;3928;42.626;23.382;2023-01-30T07:54:20;94290.72;;;3.11;71.21
7768;BME280;3928;42.626;23.382;2023-01-30T07:56:47;94287.97;;;2.92;72.56
7768;BME280;3928;42.626;23.382;2023-01-30T07:59:13;94290.50;;;2.92;73.30
7768;BME280;3928;42.626;23.382;2023-01-30T08:01:40;94240.47;;;2.76;73.41
7768;BME280;3928;42.626;23.382;2023-01-30T08:04:07;94276.81;;;2.78;73.08
7768;BME280;3928;42.626;23.382;2023-01-30T08:06:34;94278.59;;;2.85;73.11
7768;BME280;3928;42.626;23.382;2023-01-30T08:09:04;94244.56;;;2.65;73.15
7768;BME280;3928;42.626;23.382;2023-01-30T08:11:33;94263.25;;;2.73;73.40
7768;BME280;3928;42.626;23.382;2023-01-30T08:14:00;94256.44;;;2.69;72.61
7768;BME280;3928;42.626;23.382;2023-01-30T08:16:27;94233.66;;;2.72;72.99
7768;BME280;3928;42.626;23.382;2023-01-30T08:18:56;94268.53;;;2.91;73.35
7768;BME280;3928;42.626;23.382;2023-01-30T08:21:23;94265.19;;;2.96;72.71
7768;BME280;3928;42.626;23.382;2023-01-30T08:23:50;94268.53;;;2.94;71.82
7768;BME280;3928;42.626;23.382;2023-01-30T08:26:16;94269.47;;;2.98;72.46
7768;BME280;3928;42.626;23.382;2023-01-30T08:28:45;94268.59;;;2.98;72.06
7768;BME280;3928;42.626;23.382;2023-01-30T08:31:13;94258.34;;;2.88;71.80
7768;BME280;3928;42.626;23.382;2023-01-30T08:33:40;94264.41;;;3.00;71.64
7768;BME280;3928;42.626;23.382;2023-01-30T08:36:07;94250.06;;;3.02;71.28
7768;BME280;3928;42.626;23.382;2023-01-30T08:38:34;94247.41;;;2.91;71.82
7768;BME280;3928;42.626;23.382;2023-01-30T08:41:03;94257.75;;;3.11;71.23
7768;BME280;3928;42.626;23.382;2023-01-30T08:43:31;94244.97;;;2.99;70.57
7768;BME280;3928;42.626;23.382;2023-01-30T08:46:00;94245.84;;;3.02;70.52
7768;BME280;3928;42.626;23.382;2023-01-30T08:48:27;94245.00;;;3.05;70.16
7768;BME280;3928;42.626;23.382;2023-01-30T08:50:54;94244.09;;;2.97;70.14
7768;BME280;3928;42.626;23.382;2023-01-30T08:53:22;94221.03;;;2.75;70.75
7768;BME280;3928;42.626;23.382;2023-01-30T08:55:49;94241.34;;;2.80;71.43
7768;BME280;3928;42.626;23.382;2023-01-30T08:58:16;94230.59;;;3.01;70.89
7768;BME280;3928;42.626;23.382;2023-01-30T09:00:43;94222.28;;;3.11;70.07
7768;BME280;3928;42.626;23.382;2023-01-30T09:03:13;94224.72;;;3.03;69.34
7768;BME280;3928;42.626;23.382;2023-01-30T09:05:40;94221.44;;;3.12;69.31
7768;BME280;3928;42.626;23.382;2023-01-30T09:08:07;94214.59;;;3.06;68.21
7768;BME280;3928;42.626;23.382;2023-01-30T09:10:34;94212.28;;;3.29;68.51
7768;BME280;3928;42.626;23.382;2023-01-30T09:13:01;94212.41;;;3.43;67.54
7768;BME280;3928;42.626;23.382;2023-01-30T09:15:29;94209.91;;;3.46;67.05
7768;BME280;3928;42.626;23.382;2023-01-30T09:17:56;94201.63;;;3.67;66.97
7768;BME280;3928;42.626;23.382;2023-01-30T09:20:24;94209.28;;;3.70;66.13
7768;BME280;3928;42.626;23.382;2023-01-30T09:22:51;94201.75;;;3.80;65.10
7768;BME280;3928;42.626;23.382;2023-01-30T09:25:18;94181.44;;;3.79;64.21
7768;BME280;3928;42.626;23.382;2023-01-30T09:27:47;94207.75;;;3.96;62.47
7768;BME280;3928;42.626;23.382;2023-01-30T09:30:15;94200.16;;;3.96;62.79
7768;BME280;3928;42.626;23.382;2023-01-30T09:32:42;94199.31;;;4.00;62.68
7768;BME280;3928;42.626;23.382;2023-01-30T09:35:09;94206.16;;;4.10;63.18
7768;BME280;3928;42.626;23.382;2023-01-30T09:37:37;94206.91;;;3.94;62.83
7768;BME280;3928;42.626;23.382;2023-01-30T09:40:05;94210.31;;;3.99;62.69
7768;BME280;3928;42.626;23.382;2023-01-30T09:42:55;94200.16;;;3.96;62.98
7768;BME280;3928;42.626;23.382;2023-01-30T09:45:36;94201.94;;;4.13;62.25
7768;BME280;3928;42.626;23.382;2023-01-30T09:48:14;94196.97;;;4.26;63.57
7768;BME280;3928;42.626;23.382;2023-01-30T09:50:56;94194.44;;;4.28;63.09
7768;BME280;3928;42.626;23.382;2023-01-30T09:53:36;94184.34;;;4.49;63.61
7768;BME280;3928;42.626;23.382;2023-01-30T09:56:04;94187.78;;;4.60;64.37
7768;BME280;3928;42.626;23.382;2023-01-30T09:58:40;94179.34;;;4.66;62.63
7768;BME280;3928;42.626;23.382;2023-01-30T10:01:16;94170.88;;;4.62;63.88
7768;BME280;3928;42.626;23.382;2023-01-30T10:03:54;94147.13;;;4.54;62.86
7768;BME280;3928;42.626;23.382;2023-01-30T10:06:25;94170.88;;;4.72;62.93
7768;BME280;3928;42.626;23.382;2023-01-30T10:08:57;94167.47;;;4.63;63.17
7768;BME280;3928;42.626;23.382;2023-01-30T10:11:41;94171.75;;;4.78;63.75
7768;BME280;3928;42.626;23.382;2023-01-30T10:14:28;94154.84;;;4.91;63.13
7768;BME280;3928;42.626;23.382;2023-01-30T10:17:11;94152.28;;;4.82;63.83
7768;BME280;3928;42.626;23.382;2023-01-30T10:19:52;94064.94;;;4.43;64.45
7768;BME280;3928;42.626;23.382;2023-01-30T10:22:33;94142.94;;;4.81;64.15
7768;BME280;3928;42.626;23.382;2023-01-30T10:25:16;94125.19;;;4.90;64.00
7768;BME280;3928;42.626;23.382;2023-01-30T10:27:49;94135.34;;;4.94;64.08
7768;BME280;3928;42.626;23.382;2023-01-30T10:30:18;94130.22;;;4.62;63.69
7768;BME280;3928;42.626;23.382;2023-01-30T10:32:48;94115.81;;;4.64;64.87
7768;BME280;3928;42.626;23.382;2023-01-30T10:35:18;94114.09;;;4.69;64.58
7768;BME280;3928;42.626;23.382;2023-01-30T10:37:52;94120.09;;;4.87;64.00
7768;BME280;3928;42.626;23.382;2023-01-30T10:40:27;94106.50;;;4.82;63.76
7768;BME280;3928;42.626;23.382;2023-01-30T10:43:01;94079.38;;;4.62;62.41
7768;BME280;3928;42.626;23.382;2023-01-30T10:45:33;94103.13;;;4.74;63.32
7768;BME280;3928;42.626;23.382;2023-01-30T10:48:17;94098.88;;;4.62;64.80
7768;BME280;3928;42.626;23.382;2023-01-30T10:50:51;94086.97;;;4.53;65.48
7768;BME280;3928;42.626;23.382;2023-01-30T10:53:23;94097.13;;;4.55;64.61
7768;BME280;3928;42.626;23.382;2023-01-30T10:55:59;94081.88;;;4.61;63.77
7768;BME280;3928;42.626;23.382;2023-01-30T10:58:34;94070.91;;;4.69;63.57
7768;BME280;3928;42.626;23.382;2023-01-30T11:01:06;94065.00;;;4.77;62.53
7768;BME280;3928;42.626;23.382;2023-01-30T11:03:40;94059.91;;;4.90;63.06
7768;BME280;3928;42.626;23.382;2023-01-30T11:06:11;94060.75;;;4.66;61.38
7768;BME280;3928;42.626;23.382;2023-01-30T11:08:42;94053.94;;;4.73;62.12
7768;BME280;3928;42.626;23.382;2023-01-30T11:11:28;94056.50;;;4.62;61.25
7768;BME280;3928;42.626;23.382;2023-01-30T11:14:05;94049.69;;;4.60;61.65
7768;BME280;3928;42.626;23.382;2023-01-30T11:16:40;94032.75;;;4.47;61.79
7768;BME280;3928;42.626;23.382;2023-01-30T11:19:08;94032.72;;;4.31;62.37
7768;BME280;3928;42.626;23.382;2023-01-30T11:21:36;94031.91;;;4.40;63.20
7768;BME280;3928;42.626;23.382;2023-01-30T11:24:04;94011.53;;;4.31;62.69
7768;BME280;3928;42.626;23.382;2023-01-30T11:26:38;94027.69;;;4.53;62.67
7768;BME280;3928;42.626;23.382;2023-01-30T11:29:23;94007.34;;;4.60;61.63
7768;BME280;3928;42.626;23.382;2023-01-30T11:31:51;94007.34;;;4.45;61.39
7768;BME280;3928;42.626;23.382;2023-01-30T11:34:20;94007.34;;;4.39;61.79
7768;BME280;3928;42.626;23.382;2023-01-30T11:36:48;93991.19;;;4.16;61.66
7768;BME280;3928;42.626;23.382;2023-01-30T11:39:22;93996.31;;;4.26;61.73
7768;BME280;3928;42.626;23.382;2023-01-30T11:42:09;93997.97;;;4.20;61.84
7768;BME280;3928;42.626;23.382;2023-01-30T11:44:39;93971.66;;;3.96;62.15
7768;BME280;3928;42.626;23.382;2023-01-30T11:47:08;93987.72;;;3.86;63.55
7768;BME280;3928;42.626;23.382;2023-01-30T11:49:42;93979.31;;;4.05;64.04
7768;BME280;3928;42.626;23.382;2023-01-30T11:52:11;93966.59;;;4.02;63.71
7768;BME280;3928;42.626;23.382;2023-01-30T11:54:40;93781.13;;;3.02;63.21
7768;BME280;3928;42.626;23.382;2023-01-30T11:57:13;93968.31;;;4.13;62.96
7768;BME280;3928;42.626;23.382;2023-01-30T11:59:43;93951.44;;;4.33;63.27
7768;BME280;3928;42.626;23.382;2023-01-30T12:02:16;93952.28;;;4.32;61.39
7768;BME280;3928;42.626;23.382;2023-01-30T12:04:46;93942.13;;;4.41;61.64
7768;BME280;3928;42.626;23.382;2023-01-30T12:07:21;93940.44;;;4.52;61.71
7768;BME280;3928;42.626;23.382;2023-01-30T12:09:48;93940.44;;;4.70;61.69
7768;BME280;3928;42.626;23.382;2023-01-30T12:12:29;93924.34;;;4.59;61.15
7768;BME280;3928;42.626;23.382;2023-01-30T12:15:17;93913.34;;;4.39;63.44
7768;BME280;3928;42.626;23.382;2023-01-30T12:17:51;93904.84;;;4.49;62.30
7768;BME280;3928;42.626;23.382;2023-01-30T12:20:28;93887.09;;;4.42;61.53
7768;BME280;3928;42.626;23.382;2023-01-30T12:23:07;93909.09;;;4.61;61.19
7768;BME280;3928;42.626;23.382;2023-01-30T12:25:41;93909.09;;;4.43;61.59
7768;BME280;3928;42.626;23.382;2023-01-30T12:28:17;93921.81;;;4.52;61.06
7768;BME280;3928;42.626;23.382;2023-01-30T12:30:48;93907.41;;;4.58;60.76
7768;BME280;3928;42.626;23.382;2023-01-30T12:33:17;93899.75;;;4.70;60.70
7768;BME280;3928;42.626;23.382;2023-01-30T12:35:51;93874.38;;;4.63;60.98
7768;BME280;3928;42.626;23.382;2023-01-30T12:38:36;93869.31;;;4.28;61.10
7768;BME280;3928;42.626;23.382;2023-01-30T12:41:22;93891.31;;;4.53;60.78
7768;BME280;3928;42.626;23.382;2023-01-30T12:46:59;93884.53;;;4.74;60.48
7768;BME280;3928;42.626;23.382;2023-01-30T12:49:45;93878.63;;;4.62;60.45
7768;BME280;3928;42.626;23.382;2023-01-30T12:52:40;93870.13;;;4.74;59.18
7768;BME280;3928;42.626;23.382;2023-01-30T12:55:20;93864.19;;;4.70;58.42
7768;BME280;3928;42.626;23.382;2023-01-30T12:57:53;93849.81;;;4.57;58.04
7768;BME280;3928;42.626;23.382;2023-01-30T13:00:32;93854.91;;;4.28;54.46
7768;BME280;3928;42.626;23.382;2023-01-30T13:03:18;93853.19;;;4.36;55.52
7768;BME280;3928;42.626;23.382;2023-01-30T13:05:51;93854.91;;;4.18;55.50
7768;BME280;3928;42.626;23.382;2023-01-30T13:08:33;93852.38;;;4.11;54.49
7768;BME280;3928;42.626;23.382;2023-01-30T13:11:13;93844.75;;;4.31;55.26
7768;BME280;3928;42.626;23.382;2023-01-30T13:13:45;93850.66;;;4.10;54.86
7768;BME280;3928;42.626;23.382;2023-01-30T13:16:21;93847.28;;;4.21;54.76
7768;BME280;3928;42.626;23.382;2023-01-30T13:18:54;93843.06;;;4.21;54.52
7768;BME280;3928;42.626;23.382;2023-01-30T13:21:28;93828.66;;;4.25;55.63
7768;BME280;3928;42.626;23.382;2023-01-30T13:24:06;93837.16;;;4.27;54.58
7768;BME280;3928;42.626;23.382;2023-01-30T13:26:38;93845.59;;;4.23;56.53
7768;BME280;3928;42.626;23.382;2023-01-30T13:29:12;93842.19;;;3.69;58.29
7768;BME280;3928;42.626;23.382;2023-01-30T13:31:49;93833.72;;;3.73;61.62
7768;BME280;3928;42.626;23.382;2023-01-30T13:34:24;93837.09;;;3.61;62.46
7768;BME280;3928;42.626;23.382;2023-01-30T13:36:57;93830.28;;;3.52;63.64
7768;BME280;3928;42.626;23.382;2023-01-30T13:39:34;93826.94;;;3.64;62.96
7768;BME280;3928;42.626;23.382;2023-01-30T13:42:07;93831.13;;;3.51;60.65
7768;BME280;3928;42.626;23.382;2023-01-30T13:44:41;93834.47;;;3.32;61.48
7768;BME280;3928;42.626;23.382;2023-01-30T13:47:19;93814.97;;;3.16;60.65
7768;BME280;3928;42.626;23.382;2023-01-30T13:49:55;93826.91;;;3.44;60.54